Time;durP1;ratioP1;P1;durP2;ratioP2;P2;SDS_P1;SDS_P2;PMS_P1;PMS_P2;Temp;Humidity;BMP_temperature;BMP_pressure;BME280_temperature;BME280_humidity;BME280_pressure;Samples;Min_cycle;Max_cycle;Signal;HPM_P1;HPM_P2
2021/08/04 00:00:35;;;;;;;28.95;25.17;;;;;;;12.81;82.58;99379.44;5028008;28;20087;-70
2021/08/04 00:03:01;;;;;;;25.77;21.52;;;;;;;12.78;83.15;99381.44;5028417;28;20516;-70
2021/08/04 00:05:26;;;;;;;27.60;18.77;;;;;;;12.79;82.71;99373.41;5028199;28;20393;-70
2021/08/04 00:07:51;;;;;;;24.27;18.88;;;;;;;12.77;82.76;99383.22;5026473;28;20112;-70
2021/08/04 00:10:18;;;;;;;29.25;20.45;;;;;;;12.75;83.37;99381.63;5027029;28;20053;-70
2021/08/04 00:12:44;;;;;;;22.63;18.83;;;;;;;12.73;82.88;99376.47;5028729;28;20392;-71
2021/08/04 00:15:11;;;;;;;22.70;18.20;;;;;;;12.74;82.86;99379.94;5028198;28;20044;-70
2021/08/04 00:17:37;;;;;;;37.17;26.00;;;;;;;12.75;82.96;99377.22;5032481;28;20052;-70
2021/08/04 00:20:04;;;;;;;38.00;24.98;;;;;;;12.70;83.25;99376.66;5032890;28;20037;-70
2021/08/04 00:22:30;;;;;;;33.78;26.10;;;;;;;12.70;82.72;99373.16;5032144;28;20134;-70
2021/08/04 00:24:55;;;;;;;33.95;25.50;;;;;;;12.68;82.87;99374.09;5032084;28;20490;-70
2021/08/04 00:27:21;;;;;;;20.13;18.00;;;;;;;12.67;83.87;99379.47;5031222;28;20037;-70
2021/08/04 00:29:46;;;;;;;22.95;18.40;;;;;;;12.69;83.58;99380.22;5030643;28;20042;-71
2021/08/04 00:32:11;;;;;;;23.65;17.88;;;;;;;12.70;83.11;99383.72;5032644;28;20079;-70
2021/08/04 00:34:37;;;;;;;19.73;17.25;;;;;;;12.72;83.02;99379.19;5030080;28;20037;-71
2021/08/04 00:37:03;;;;;;;24.00;20.63;;;;;;;12.73;82.84;99375.63;5031053;28;20033;-71
2021/08/04 00:39:28;;;;;;;22.13;17.92;;;;;;;12.71;82.87;99378.34;5031075;28;20033;-69
2021/08/04 00:41:53;;;;;;;22.70;16.75;;;;;;;12.70;82.58;99376.66;5030591;28;20037;-71
2021/08/04 00:44:19;;;;;;;21.67;18.40;;;;;;;12.69;82.29;99372.31;5013449;28;20412;-71
2021/08/04 00:46:45;;;;;;;20.05;16.20;;;;;;;12.67;82.92;99374.19;5029663;28;20041;-71
2021/08/04 00:49:11;;;;;;;21.67;17.02;;;;;;;12.66;82.94;99369.88;5031393;28;20375;-69
2021/08/04 00:51:37;;;;;;;19.08;17.02;;;;;;;12.64;82.50;99369.94;5031110;28;20040;-70
2021/08/04 00:54:05;;;;;;;19.65;17.23;;;;;;;12.62;82.75;99371.00;5030590;28;20493;-71
2021/08/04 00:56:31;;;;;;;22.50;18.95;;;;;;;12.62;83.11;99374.47;5030559;28;20033;-71
2021/08/04 00:58:56;;;;;;;18.23;16.27;;;;;;;12.62;82.63;99363.91;5030805;28;20501;-71
2021/08/04 01:01:25;;;;;;;24.42;19.15;;;;;;;12.63;82.59;99370.06;5008610;28;20042;-70
2021/08/04 01:03:58;;;;;;;22.02;17.17;;;;;;;12.61;83.25;99370.16;5011605;28;20056;-70
2021/08/04 01:06:46;;;;;;;19.80;16.55;;;;;;;12.60;83.07;99370.25;5010626;28;20038;-70
2021/08/04 01:09:12;;;;;;;20.85;17.23;;;;;;;12.60;83.01;99364.94;5011475;28;20037;-69
2021/08/04 01:11:40;;;;;;;20.33;16.52;;;;;;;12.59;82.27;99369.41;5010843;28;20037;-70
2021/08/04 01:14:11;;;;;;;22.45;18.90;;;;;;;12.57;82.65;99366.00;5010879;28;20073;-71
2021/08/04 01:16:40;;;;;;;24.25;20.17;;;;;;;12.58;82.90;99366.88;5010539;28;20048;-70
2021/08/04 01:19:17;;;;;;;21.83;16.52;;;;;;;12.61;83.27;99372.81;5010747;28;20041;-71
2021/08/04 01:22:08;;;;;;;28.33;22.13;;;;;;;12.65;82.54;99361.09;5011043;28;20034;-68
2021/08/04 01:24:39;;;;;;;26.98;21.70;;;;;;;12.61;83.00;99367.50;5010193;28;20037;-69
2021/08/04 01:27:06;;;;;;;24.10;20.08;;;;;;;12.63;83.49;99362.97;5009728;28;20034;-69
2021/08/04 01:29:32;;;;;;;19.23;16.63;;;;;;;12.65;82.71;99358.44;5010765;28;20030;-68
2021/08/04 01:32:01;;;;;;;32.30;23.80;;;;;;;12.65;82.44;99357.56;5009608;28;20041;-68
2021/08/04 01:34:27;;;;;;;30.95;26.50;;;;;;;12.65;83.01;99358.44;5011035;28;20041;-68
2021/08/04 01:36:56;;;;;;;23.23;19.83;;;;;;;12.67;82.81;99360.97;5010123;28;20572;-69
2021/08/04 01:39:22;;;;;;;27.30;21.48;;;;;;;12.65;82.63;99363.72;5010518;28;20045;-69
2021/08/04 01:41:50;;;;;;;36.85;23.85;;;;;;;12.64;83.18;99359.38;5010674;28;20145;-68
2021/08/04 01:44:16;;;;;;;33.80;26.58;;;;;;;12.62;82.78;99348.03;5010607;28;20125;-69
2021/08/04 01:46:42;;;;;;;36.58;26.05;;;;;;;12.60;83.21;99354.38;5009832;28;20502;-68
2021/08/04 01:49:09;;;;;;;23.33;20.85;;;;;;;12.58;82.96;99346.56;5010694;28;20065;-71
2021/08/04 01:51:35;;;;;;;25.70;20.38;;;;;;;12.60;82.67;99347.31;5010248;28;20029;-70
2021/08/04 01:54:01;;;;;;;21.80;19.40;;;;;;;12.61;82.91;99343.72;5008965;28;20116;-71
2021/08/04 01:56:27;;;;;;;18.23;15.98;;;;;;;12.62;83.13;99336.63;4991912;28;20402;-70
2021/08/04 01:58:53;;;;;;;38.88;27.63;;;;;;;12.60;82.97;99341.16;5010689;28;20038;-69
2021/08/04 02:01:18;;;;;;;34.83;26.25;;;;;;;12.50;82.73;99335.59;5010400;28;20092;-69
2021/08/04 02:03:43;;;;;;;30.88;23.17;;;;;;;12.45;83.31;99335.06;5008540;28;20490;-69
2021/08/04 02:06:20;;;;;;;28.98;22.40;;;;;;;12.45;83.34;99343.00;5009624;28;20034;-70
2021/08/04 02:08:58;;;;;;;22.65;18.63;;;;;;;12.44;83.15;99351.88;5010113;28;20042;-68
2021/08/04 02:11:34;;;;;;;20.50;17.38;;;;;;;12.44;83.50;99352.72;5008855;28;20332;-69
2021/08/04 02:14:04;;;;;;;23.63;18.27;;;;;;;12.44;82.41;99343.94;5010108;28;20038;-69
2021/08/04 02:17:05;;;;;;;24.48;19.13;;;;;;;12.42;82.57;99351.97;5009684;28;20118;-69
2021/08/04 02:19:33;;;;;;;31.33;21.85;;;;;;;12.36;83.35;99351.53;5010349;28;20100;-69
2021/08/04 02:22:03;;;;;;;27.05;22.27;;;;;;;12.34;83.21;99342.84;5011456;28;20095;-71
2021/08/04 02:24:33;;;;;;;32.45;22.95;;;;;;;12.32;83.36;99340.28;5010482;28;20045;-70
2021/08/04 02:27:00;;;;;;;24.23;21.02;;;;;;;12.30;83.23;99341.34;5010053;28;20104;-70
2021/08/04 02:29:29;;;;;;;21.48;18.48;;;;;;;12.29;83.51;99350.22;5010366;28;20041;-72
2021/08/04 02:31:55;;;;;;;31.00;24.38;;;;;;;12.28;82.38;99340.56;5010825;28;20037;-72
2021/08/04 02:34:21;;;;;;;33.75;23.65;;;;;;;12.20;83.29;99349.84;5010691;28;20029;-72
2021/08/04 02:36:48;;;;;;;29.27;22.88;;;;;;;12.17;83.48;99338.63;5009272;28;20038;-72
2021/08/04 02:39:14;;;;;;;35.67;25.75;;;;;;;12.19;83.56;99347.31;5009530;28;20030;-72
2021/08/04 02:41:39;;;;;;;24.20;19.70;;;;;;;12.16;83.16;99345.72;5009755;28;20041;-72
2021/08/04 02:44:05;;;;;;;22.90;18.00;;;;;;;12.14;83.24;99342.31;5009526;28;20494;-70
2021/08/04 02:46:31;;;;;;;23.67;21.20;;;;;;;12.14;83.25;99341.47;5008902;28;20128;-70
2021/08/04 02:48:57;;;;;;;22.95;19.63;;;;;;;12.10;82.99;99346.06;5009628;28;20099;-70
2021/08/04 02:51:24;;;;;;;22.48;18.63;;;;;;;12.10;83.07;99338.16;5009649;28;20084;-70
2021/08/04 02:53:57;;;;;;;30.48;23.92;;;;;;;12.10;82.81;99340.78;5009313;28;20084;-70
2021/08/04 02:56:24;;;;;;;31.80;23.00;;;;;;;12.10;82.53;99335.50;5008809;28;20095;-69
2021/08/04 02:58:49;;;;;;;27.27;20.63;;;;;;;12.09;83.10;99339.09;5009138;28;20052;-69
2021/08/04 03:01:15;;;;;;;24.45;18.23;;;;;;;12.08;82.96;99332.09;5009173;28;20042;-69
2021/08/04 03:03:40;;;;;;;37.97;27.67;;;;;;;12.09;82.88;99335.63;5008911;28;20485;-70
2021/08/04 03:06:06;;;;;;;34.55;26.30;;;;;;;12.10;83.09;99339.94;4999407;28;20034;-68
2021/08/04 03:08:31;;;;;;;27.33;22.10;;;;;;;12.09;83.13;99335.63;5023032;28;20090;-69
2021/08/04 03:10:57;;;;;;;27.15;22.63;;;;;;;12.13;82.74;99340.59;5029056;28;20072;-71
2021/08/04 03:13:22;;;;;;;23.67;18.15;;;;;;;12.17;82.52;99339.47;5029429;28;20029;-69
2021/08/04 03:15:48;;;;;;;26.50;21.33;;;;;;;12.21;82.77;99334.84;5028620;28;20051;-69
2021/08/04 03:18:13;;;;;;;36.50;26.40;;;;;;;12.24;82.22;99338.13;5028432;28;20041;-70
2021/08/04 03:20:38;;;;;;;35.35;27.77;;;;;;;12.20;82.16;99341.91;5028829;28;20030;-71
2021/08/04 03:23:04;;;;;;;32.13;25.85;;;;;;;12.18;82.23;99337.66;5028674;28;20041;-71
2021/08/04 03:25:29;;;;;;;35.38;25.88;;;;;;;12.15;82.74;99336.06;5028667;28;20104;-70
2021/08/04 03:27:54;;;;;;;29.08;24.45;;;;;;;12.12;82.95;99333.63;5028276;28;20040;-74
2021/08/04 03:30:20;;;;;;;33.35;26.92;;;;;;;12.11;82.92;99339.00;5007469;28;20034;-70
2021/08/04 03:32:45;;;;;;;34.28;26.88;;;;;;;12.08;83.05;99337.38;5009137;28;20108;-69
2021/08/04 03:35:11;;;;;;;25.33;21.65;;;;;;;12.12;83.20;99343.34;5009098;28;20057;-69
2021/08/04 03:37:37;;;;;;;27.42;23.95;;;;;;;12.16;82.55;99347.50;5007988;28;20080;-70
2021/08/04 03:40:03;;;;;;;26.33;21.45;;;;;;;12.21;82.54;99353.34;5008486;28;20084;-70
2021/08/04 03:42:29;;;;;;;26.92;22.00;;;;;;;12.22;82.62;99350.59;5008767;28;20033;-70
2021/08/04 03:44:54;;;;;;;30.20;24.90;;;;;;;12.24;82.05;99350.50;5009377;28;20486;-70
2021/08/04 03:47:19;;;;;;;42.17;30.02;;;;;;;12.25;82.56;99354.84;5007896;28;20040;-69
2021/08/04 03:49:45;;;;;;;42.30;29.77;;;;;;;12.22;82.76;99361.16;5009054;28;20038;-69
2021/08/04 03:52:10;;;;;;;34.53;22.63;;;;;;;12.18;83.03;99356.16;5011386;28;20490;-70
2021/08/04 03:54:35;;;;;;;28.17;23.95;;;;;;;12.18;82.81;99362.31;5012997;28;20041;-70
2021/08/04 03:57:01;;;;;;;31.40;23.50;;;;;;;12.20;83.17;99362.22;5011994;28;20037;-70
2021/08/04 03:59:26;;;;;;;33.20;22.30;;;;;;;12.25;82.72;99366.25;5011249;28;20500;-69
2021/08/04 04:01:51;;;;;;;31.77;24.23;;;;;;;12.29;82.47;99360.78;5012950;28;20042;-69
2021/08/04 04:04:16;;;;;;;32.65;23.80;;;;;;;12.30;83.13;99355.38;5011603;28;20033;-69
2021/08/04 04:06:42;;;;;;;43.22;32.97;;;;;;;12.33;82.43;99357.00;5011828;28;20030;-70
2021/08/04 04:09:07;;;;;;;37.97;27.85;;;;;;;12.32;82.62;99364.06;5012381;28;20372;-69
2021/08/04 04:11:32;;;;;;;34.70;27.38;;;;;;;12.33;82.08;99368.44;5012401;28;20038;-69
2021/08/04 04:13:58;;;;;;;31.25;26.88;;;;;;;12.33;81.90;99368.44;5012272;28;20117;-70
2021/08/04 04:16:23;;;;;;;43.88;28.08;;;;;;;12.34;82.74;99371.91;5012158;28;20040;-69
2021/08/04 04:18:49;;;;;;;38.70;26.25;;;;;;;12.34;82.33;99374.56;5012152;28;20129;-69
2021/08/04 04:21:15;;;;;;;37.72;28.17;;;;;;;12.36;82.75;99372.69;5012461;28;20030;-70
2021/08/04 04:23:40;;;;;;;37.97;29.50;;;;;;;12.31;82.54;99372.97;5012175;28;20401;-70
2021/08/04 04:26:06;;;;;;;29.48;25.38;;;;;;;12.28;83.05;99375.81;5012323;28;20033;-69
2021/08/04 04:28:31;;;;;;;32.55;25.50;;;;;;;12.31;82.67;99370.31;5011471;28;20065;-69
2021/08/04 04:30:57;;;;;;;32.78;25.35;;;;;;;12.34;82.85;99374.56;5010256;28;20119;-70
2021/08/04 04:33:22;;;;;;;30.98;24.60;;;;;;;12.36;82.89;99377.97;5012474;28;20080;-70
2021/08/04 04:35:47;;;;;;;40.97;28.30;;;;;;;12.37;82.81;99377.84;5009738;28;20049;-70
2021/08/04 04:38:13;;;;;;;31.95;22.65;;;;;;;12.40;82.93;99372.38;5011470;28;20068;-70
2021/08/04 04:40:38;;;;;;;28.48;23.27;;;;;;;12.41;82.78;99376.72;5018169;28;20040;-70
2021/08/04 04:43:03;;;;;;;29.60;22.77;;;;;;;12.43;82.47;99381.91;5021054;28;20066;-70
2021/08/04 04:45:29;;;;;;;31.00;24.48;;;;;;;12.43;82.71;99381.91;5016860;28;20088;-70
2021/08/04 04:47:54;;;;;;;34.38;23.35;;;;;;;12.44;83.19;99381.81;5012013;28;20041;-70
2021/08/04 04:50:20;;;;;;;38.70;30.48;;;;;;;12.44;82.27;99380.97;5012240;28;20030;-70
2021/08/04 04:52:45;;;;;;;28.35;22.65;;;;;;;12.42;82.51;99377.56;5011887;28;20033;-70
2021/08/04 04:55:12;;;;;;;35.75;24.63;;;;;;;12.43;82.76;99377.47;5011243;28;20028;-70
2021/08/04 04:57:37;;;;;;;33.33;25.75;;;;;;;12.44;82.56;99378.31;5012566;28;20030;-71
2021/08/04 05:00:04;;;;;;;32.50;26.88;;;;;;;12.44;82.74;99379.16;5010050;28;20450;-71
2021/08/04 05:02:30;;;;;;;31.77;24.52;;;;;;;12.47;83.22;99380.75;5008625;28;20029;-70
2021/08/04 05:04:58;;;;;;;35.40;25.60;;;;;;;12.49;82.32;99385.97;5004376;28;20398;-70
2021/08/04 05:07:24;;;;;;;31.10;23.48;;;;;;;12.48;82.78;99377.19;5009835;28;20037;-70
2021/08/04 05:09:49;;;;;;;27.35;22.20;;;;;;;12.47;82.94;99378.13;5010621;28;20034;-70
2021/08/04 05:12:14;;;;;;;36.53;28.55;;;;;;;12.50;82.79;99382.34;5011338;28;20041;-70
2021/08/04 05:14:40;;;;;;;31.65;24.08;;;;;;;12.52;82.47;99394.53;5011319;28;20050;-70
2021/08/04 05:17:07;;;;;;;35.30;25.35;;;;;;;12.53;82.42;99390.97;5009223;28;20099;-70
2021/08/04 05:19:32;;;;;;;30.92;23.75;;;;;;;12.57;82.35;99388.97;5011093;28;20033;-71
2021/08/04 05:21:58;;;;;;;31.65;24.75;;;;;;;12.58;81.90;99394.16;5011194;28;20091;-68
2021/08/04 05:24:23;;;;;;;33.83;25.50;;;;;;;12.62;82.59;99394.78;5010658;28;20037;-68
2021/08/04 05:26:48;;;;;;;27.25;22.70;;;;;;;12.66;82.96;99402.44;5010140;28;20072;-67
2021/08/04 05:29:13;;;;;;;27.45;22.85;;;;;;;12.70;82.32;99394.31;5010318;28;20117;-67
2021/08/04 05:31:39;;;;;;;33.85;26.30;;;;;;;12.74;82.56;99393.16;5011101;28;20022;-67
2021/08/04 05:34:05;;;;;;;29.60;24.85;;;;;;;12.77;81.97;99395.59;5010409;28;20493;-66
2021/08/04 05:36:31;;;;;;;30.38;25.02;;;;;;;12.80;82.54;99398.91;5010441;28;20056;-67
2021/08/04 05:38:57;;;;;;;29.77;25.23;;;;;;;12.82;82.35;99396.16;5010532;28;20151;-67
2021/08/04 05:41:23;;;;;;;32.67;25.77;;;;;;;12.86;82.13;99401.16;5010954;28;20034;-67
2021/08/04 05:43:48;;;;;;;31.63;25.33;;;;;;;12.91;82.25;99406.16;5010522;28;20033;-67
2021/08/04 05:46:14;;;;;;;30.55;24.88;;;;;;;12.99;82.51;99408.28;5010577;28;20045;-66
2021/08/04 05:48:39;;;;;;;32.85;23.75;;;;;;;13.07;82.77;99401.56;5010006;28;20034;-67
2021/08/04 05:51:04;;;;;;;33.88;25.23;;;;;;;13.16;82.21;99412.47;5010323;28;20025;-66
2021/08/04 05:53:30;;;;;;;36.35;27.02;;;;;;;13.26;82.46;99408.28;5010892;28;20040;-66
2021/08/04 05:55:55;;;;;;;38.90;27.23;;;;;;;13.36;82.12;99396.16;5010545;28;20454;-66
2021/08/04 05:58:20;;;;;;;35.00;25.02;;;;;;;13.49;82.63;99404.16;5009365;28;20057;-67
2021/08/04 06:00:46;;;;;;;32.10;26.35;;;;;;;13.60;81.92;99393.66;5010236;28;20049;-66
2021/08/04 06:03:11;;;;;;;36.53;26.45;;;;;;;13.70;81.38;99396.53;5010319;28;20092;-67
2021/08/04 06:05:37;;;;;;;44.13;31.95;;;;;;;13.79;81.31;99395.06;5010310;28;20057;-67
2021/08/04 06:08:02;;;;;;;32.88;26.67;;;;;;;13.92;81.40;99395.91;5009475;28;20394;-68
2021/08/04 06:10:27;;;;;;;34.10;26.98;;;;;;;14.06;81.36;99394.94;5010214;28;20036;-71
2021/08/04 06:12:53;;;;;;;30.25;22.33;;;;;;;14.22;80.87;99392.06;5010053;28;20331;-71
2021/08/04 06:15:18;;;;;;;31.20;25.30;;;;;;;14.40;79.94;99388.09;5006706;28;20092;-72
2021/08/04 06:17:43;;;;;;;26.13;22.65;;;;;;;14.58;79.34;99399.22;5008428;28;20505;-71
2021/08/04 06:20:09;;;;;;;30.48;25.85;;;;;;;14.72;78.49;99398.25;5009615;28;20033;-69
2021/08/04 06:22:35;;;;;;;29.50;22.92;;;;;;;14.85;78.21;99398.19;5008656;28;20057;-70
2021/08/04 06:25:00;;;;;;;30.67;23.00;;;;;;;14.99;77.71;99390.06;5004870;28;20386;-70
2021/08/04 06:27:26;;;;;;;34.33;25.13;;;;;;;15.12;77.46;99385.53;5006038;28;20045;-70
2021/08/04 06:29:51;;;;;;;29.73;26.38;;;;;;;15.19;77.15;99394.72;5008022;28;20050;-69
2021/08/04 06:32:16;;;;;;;27.08;21.75;;;;;;;15.30;77.72;99393.06;5008199;28;20029;-68
2021/08/04 06:34:42;;;;;;;27.58;21.88;;;;;;;15.43;77.05;99386.72;5009806;28;20109;-71
2021/08/04 06:37:07;;;;;;;27.73;23.92;;;;;;;15.59;76.90;99393.53;5008686;28;20041;-70
2021/08/04 06:39:32;;;;;;;25.30;22.38;;;;;;;15.76;75.78;99389.63;5009169;28;20046;-69
2021/08/04 06:41:58;;;;;;;28.00;22.40;;;;;;;15.89;75.35;99393.00;5009977;28;20409;-68
2021/08/04 06:44:23;;;;;;;25.40;22.67;;;;;;;15.97;73.44;99387.94;5009410;28;20034;-68
2021/08/04 06:46:48;;;;;;;30.48;24.27;;;;;;;16.07;72.09;99390.72;5007408;28;20065;-68
2021/08/04 06:49:14;;;;;;;27.17;23.38;;;;;;;16.16;72.58;99392.66;5009667;28;20041;-68
2021/08/04 06:51:39;;;;;;;34.17;23.08;;;;;;;16.26;71.05;99398.09;5007468;28;20038;-68
2021/08/04 06:54:04;;;;;;;20.08;17.98;;;;;;;16.40;71.34;99405.00;5009201;28;20026;-69
2021/08/04 06:56:30;;;;;;;27.95;21.35;;;;;;;16.53;71.47;99405.69;5009302;28;20045;-69
2021/08/04 06:58:55;;;;;;;26.67;23.30;;;;;;;16.60;70.78;99401.59;5008875;28;20038;-70
2021/08/04 07:01:21;;;;;;;31.73;22.60;;;;;;;16.69;70.30;99400.00;5009401;28;20217;-68
2021/08/04 07:03:46;;;;;;;30.50;21.48;;;;;;;16.78;70.05;99399.28;5009244;28;20042;-70
2021/08/04 07:06:12;;;;;;;23.83;17.20;;;;;;;16.89;67.93;99395.75;5008518;28;20037;-70
2021/08/04 07:08:38;;;;;;;19.92;14.90;;;;;;;16.99;66.11;99393.19;5008270;28;20033;-69
2021/08/04 07:11:05;;;;;;;16.75;14.95;;;;;;;17.10;66.75;99393.13;5043457;28;20040;-69
2021/08/04 07:13:31;;;;;;;27.55;18.08;;;;;;;17.22;66.42;99393.94;5007538;28;20042;-69
2021/08/04 07:15:56;;;;;;;32.00;18.45;;;;;;;17.10;65.41;99385.97;5009240;28;20030;-69
2021/08/04 07:18:22;;;;;;;25.17;16.85;;;;;;;17.22;64.50;99391.28;5008454;28;20198;-68
2021/08/04 07:20:47;;;;;;;22.02;17.35;;;;;;;17.29;64.46;99403.13;5009178;28;20445;-70
2021/08/04 07:23:13;;;;;;;20.40;16.33;;;;;;;17.42;64.40;99400.25;5008941;28;20052;-69
2021/08/04 07:25:38;;;;;;;17.23;13.60;;;;;;;17.58;63.76;99398.84;5008167;28;20036;-69
2021/08/04 07:28:04;;;;;;;18.00;13.32;;;;;;;17.71;64.15;99389.81;5009350;28;20734;-70
2021/08/04 07:30:29;;;;;;;22.02;15.38;;;;;;;17.88;62.70;99391.06;5009417;28;20055;-70
2021/08/04 07:32:55;;;;;;;19.45;15.70;;;;;;;17.96;63.13;99391.25;5008853;28;20056;-70
2021/08/04 07:35:20;;;;;;;32.22;17.52;;;;;;;18.04;63.09;99394.13;5009309;28;20060;-68
2021/08/04 07:37:46;;;;;;;20.77;16.40;;;;;;;18.22;62.39;99386.31;5010610;28;20068;-69
2021/08/04 07:40:13;;;;;;;22.33;19.20;;;;;;;18.41;61.12;99388.19;5004292;28;20042;-72
2021/08/04 07:42:39;;;;;;;20.83;17.83;;;;;;;18.59;61.08;99391.09;4994086;28;20026;-70
2021/08/04 07:45:05;;;;;;;20.27;17.98;;;;;;;18.81;60.50;99393.56;4991070;28;20057;-69
2021/08/04 07:47:31;;;;;;;21.83;19.48;;;;;;;19.13;57.44;99384.44;4987073;28;20038;-69
2021/08/04 07:49:56;;;;;;;20.58;15.98;;;;;;;19.32;57.57;99391.63;4989363;28;20553;-70
2021/08/04 07:52:22;;;;;;;25.92;19.17;;;;;;;19.32;56.48;99391.63;4989627;28;20441;-70
2021/08/04 07:54:47;;;;;;;21.95;16.67;;;;;;;19.55;55.97;99388.66;4989440;28;20034;-68
2021/08/04 07:57:13;;;;;;;18.60;16.10;;;;;;;19.74;54.94;99391.34;4988505;28;20081;-70
2021/08/04 07:59:38;;;;;;;26.75;21.92;;;;;;;19.93;55.02;99390.44;4987612;28;20050;-71
2021/08/04 08:02:04;;;;;;;26.60;17.92;;;;;;;20.31;54.33;99392.13;4989703;28;20461;-69
2021/08/04 08:04:31;;;;;;;21.83;17.20;;;;;;;20.67;52.26;99397.59;4989294;28;20036;-69
2021/08/04 08:06:57;;;;;;;23.05;16.08;;;;;;;20.92;52.31;99392.53;4988144;28;20058;-73
2021/08/04 08:09:24;;;;;;;20.58;18.42;;;;;;;21.37;49.26;99395.16;4989357;28;20026;-69
2021/08/04 08:11:50;;;;;;;19.95;17.50;;;;;;;21.72;48.74;99397.97;4987610;28;20050;-69
2021/08/04 08:14:17;;;;;;;23.08;18.48;;;;;;;21.85;47.35;99390.34;4989295;28;20061;-69
2021/08/04 08:16:43;;;;;;;23.02;17.75;;;;;;;21.62;47.99;99382.81;4987663;28;20139;-69
2021/08/04 08:19:08;;;;;;;17.38;15.52;;;;;;;21.60;48.17;99386.63;4988815;28;20046;-68
2021/08/04 08:21:34;;;;;;;18.45;15.60;;;;;;;21.81;47.98;99383.63;4989232;28;20642;-69
2021/08/04 08:23:59;;;;;;;17.88;14.48;;;;;;;21.85;48.06;99380.44;4988781;28;20045;-69
2021/08/04 08:26:25;;;;;;;17.98;15.73;;;;;;;21.44;48.30;99385.53;4988045;28;20022;-72
2021/08/04 08:28:51;;;;;;;18.48;15.35;;;;;;;20.86;49.38;99379.75;4988467;28;20035;-69
2021/08/04 08:31:16;;;;;;;19.55;13.93;;;;;;;20.96;50.18;99377.84;4989084;28;20030;-69
2021/08/04 08:33:42;;;;;;;17.65;13.30;;;;;;;21.00;49.89;99379.22;4988833;28;20502;-69
2021/08/04 08:36:07;;;;;;;14.23;11.57;;;;;;;21.10;49.97;99373.78;4986397;28;20037;-69
2021/08/04 08:38:33;;;;;;;14.10;12.30;;;;;;;21.02;50.45;99366.53;4998421;28;20112;-69
2021/08/04 08:40:58;;;;;;;17.63;14.55;;;;;;;21.01;50.44;99367.50;4992451;28;20041;-69
2021/08/04 08:43:24;;;;;;;16.63;11.55;;;;;;;20.93;49.84;99362.91;4992063;28;20034;-69
2021/08/04 08:45:52;;;;;;;20.10;12.85;;;;;;;21.04;51.27;99364.50;4991942;28;20039;-70
2021/08/04 08:48:18;;;;;;;14.98;12.38;;;;;;;21.09;50.59;99364.03;4991434;28;20026;-69
2021/08/04 08:50:46;;;;;;;17.10;13.30;;;;;;;20.95;48.17;99368.97;4991876;28;20065;-69
2021/08/04 08:53:12;;;;;;;12.20;10.35;;;;;;;21.08;47.34;99368.56;4990183;28;20049;-69
2021/08/04 08:55:38;;;;;;;13.27;8.82;;;;;;;21.21;48.87;99363.66;4992248;28;20628;-70
2021/08/04 08:58:04;;;;;;;14.20;11.35;;;;;;;20.83;46.67;99355.94;4992003;28;20490;-70
2021/08/04 09:00:30;;;;;;;11.70;7.93;;;;;;;20.99;46.07;99365.00;4991032;28;20054;-70
2021/08/04 09:02:55;;;;;;;14.82;11.00;;;;;;;20.46;46.22;99370.22;5008292;28;22375;-69
2021/08/04 09:05:21;;;;;;;14.60;10.45;;;;;;;20.28;49.02;99379.06;5032047;28;20087;-70
2021/08/04 09:07:47;;;;;;;10.15;9.05;;;;;;;20.46;48.38;99365.72;5030824;28;20052;-69
2021/08/04 09:10:25;;;;;;;10.57;9.13;;;;;;;20.57;48.66;99368.19;5031011;28;20555;-70
2021/08/04 09:12:56;;;;;;;12.82;10.63;;;;;;;20.79;47.51;99371.47;4995815;28;20052;-71
2021/08/04 09:15:42;;;;;;;14.32;11.38;;;;;;;21.05;47.52;99365.38;4996086;28;20048;-71
2021/08/04 09:18:09;;;;;;;14.32;11.57;;;;;;;21.06;47.57;99361.69;4993717;28;20490;-71
2021/08/04 09:20:45;;;;;;;16.42;11.77;;;;;;;21.00;48.22;99363.97;4991684;28;20042;-73
2021/08/04 09:23:26;;;;;;;12.68;10.15;;;;;;;21.35;46.27;99364.13;5010556;28;20129;-71
2021/08/04 09:26:14;;;;;;;12.98;8.60;;;;;;;21.94;44.71;99367.09;5009978;28;20038;-71
2021/08/04 09:29:09;;;;;;;13.35;10.73;;;;;;;22.69;42.88;99362.75;5008476;28;20042;-70
2021/08/04 09:31:40;;;;;;;13.85;11.77;;;;;;;23.71;41.75;99359.81;5011581;28;20096;-72
2021/08/04 09:34:47;;;;;;;11.80;10.60;;;;;;;24.50;40.12;99368.06;5010789;28;20041;-71
2021/08/04 09:37:16;;;;;;;13.18;11.18;;;;;;;24.55;39.89;99355.72;5010036;28;20034;-69
2021/08/04 09:39:54;;;;;;;18.15;11.73;;;;;;;24.38;39.68;99356.78;5011508;28;20030;-70
2021/08/04 09:42:21;;;;;;;15.45;11.75;;;;;;;24.46;40.20;99354.06;5012083;28;20042;-71
2021/08/04 09:44:57;;;;;;;13.57;10.93;;;;;;;23.93;41.08;99350.22;4993742;28;20050;-71
2021/08/04 09:47:23;;;;;;;13.30;10.98;;;;;;;24.08;41.56;99348.47;4991507;28;20037;-70
2021/08/04 09:49:57;;;;;;;16.08;12.60;;;;;;;23.70;42.21;99347.34;4999611;28;20517;-73
2021/08/04 09:52:23;;;;;;;12.65;11.07;;;;;;;23.33;43.02;99348.72;4986402;28;20038;-70
2021/08/04 09:54:50;;;;;;;13.70;11.35;;;;;;;23.09;43.87;99338.81;4999239;28;20414;-70
2021/08/04 09:57:16;;;;;;;19.45;13.77;;;;;;;22.79;44.78;99343.78;5004680;28;20069;-69
2021/08/04 10:00:08;;;;;;;17.50;12.13;;;;;;;22.73;44.51;99336.38;5003518;28;20460;-71
2021/08/04 10:02:34;;;;;;;13.48;10.60;;;;;;;22.50;44.77;99339.69;4993320;28;20061;-70
2021/08/04 10:05:22;;;;;;;13.32;11.52;;;;;;;22.49;44.63;99337.97;4999638;28;20720;-70
2021/08/04 10:08:03;;;;;;;11.52;10.27;;;;;;;22.27;45.70;99336.75;4983863;28;20505;-72
2021/08/04 10:10:32;;;;;;;18.60;13.05;;;;;;;22.07;45.34;99333.41;4977168;28;20038;-70
2021/08/04 10:12:59;;;;;;;13.63;12.00;;;;;;;21.57;46.69;99333.31;4999695;28;20033;-70
2021/08/04 10:15:26;;;;;;;17.48;11.70;;;;;;;21.67;46.26;99342.09;4999815;28;20045;-71
2021/08/04 10:17:52;;;;;;;11.32;9.93;;;;;;;21.83;46.83;99339.53;5000994;28;20121;-73
2021/08/04 10:20:18;;;;;;;11.73;10.38;;;;;;;21.85;46.33;99337.50;5003759;28;20133;-72
2021/08/04 10:22:44;;;;;;;19.92;12.80;;;;;;;21.85;46.05;99336.66;5004375;28;20113;-69
2021/08/04 10:25:11;;;;;;;12.88;10.02;;;;;;;21.92;46.21;99337.72;5004389;28;20053;-69
2021/08/04 10:27:36;;;;;;;13.15;10.77;;;;;;;21.86;46.90;99341.03;5004411;28;20084;-70
2021/08/04 10:30:03;;;;;;;13.40;9.10;;;;;;;21.92;46.11;99340.38;5009236;28;20557;-69
2021/08/04 10:32:29;;;;;;;14.45;11.57;;;;;;;21.85;46.58;99332.13;5007667;28;20555;-70
2021/08/04 10:34:56;;;;;;;11.93;9.50;;;;;;;21.79;45.70;99338.16;5008113;28;20087;-70
2021/08/04 10:37:24;;;;;;;13.27;8.90;;;;;;;21.82;47.01;99332.44;4988885;28;20050;-69
2021/08/04 10:39:50;;;;;;;14.35;11.18;;;;;;;21.68;47.20;99340.25;4989050;28;20524;-69
2021/08/04 10:42:16;;;;;;;17.83;8.70;;;;;;;21.64;47.98;99332.53;4989965;28;20038;-69
2021/08/04 10:44:44;;;;;;;11.70;10.52;;;;;;;21.56;47.66;99327.09;4989454;28;20113;-68
2021/08/04 10:47:25;;;;;;;15.93;10.65;;;;;;;21.42;47.60;99327.66;4987580;28;20085;-69
2021/08/04 10:50:08;;;;;;;15.85;11.55;;;;;;;21.33;48.42;99332.09;4989814;28;20050;-70
2021/08/04 10:52:34;;;;;;;14.95;10.02;;;;;;;21.35;48.50;99326.56;4989764;28;20038;-69
2021/08/04 10:55:07;;;;;;;11.80;9.18;;;;;;;21.47;48.22;99327.22;4989914;28;20482;-69
2021/08/04 10:57:35;;;;;;;17.67;11.68;;;;;;;21.57;48.08;99323.41;4988985;28;20506;-70
2021/08/04 11:00:23;;;;;;;26.75;14.30;;;;;;;21.50;48.68;99321.53;4989811;28;20042;-70
2021/08/04 11:02:49;;;;;;;18.67;12.65;;;;;;;21.49;48.15;99320.69;5000794;28;20040;-69
2021/08/04 11:05:14;;;;;;;20.75;13.18;;;;;;;21.50;48.80;99322.34;5028901;28;20037;-69
2021/08/04 11:08:28;;;;;;;13.25;11.77;;;;;;;21.62;49.19;99323.78;5028124;28;20033;-69
2021/08/04 11:10:54;;;;;;;18.70;12.15;;;;;;;21.71;48.71;99316.63;5019616;28;20041;-70
2021/08/04 11:13:41;;;;;;;14.52;12.70;;;;;;;21.82;48.21;99310.16;5029134;28;20504;-70
2021/08/04 11:16:33;;;;;;;15.77;11.30;;;;;;;21.84;48.20;99308.16;5029943;28;20037;-70
2021/08/04 11:19:06;;;;;;;16.30;12.70;;;;;;;21.60;48.58;99304.31;5028936;28;20117;-70